createdAt,value
2023-02-22T00:01:28.695Z,20.35
2023-02-22T00:03:00.726Z,20.33
2023-02-22T00:04:35.852Z,17.02
2023-02-22T00:06:08.168Z,14.48
2023-02-22T00:07:40.154Z,21.52
2023-02-22T00:09:12.229Z,17.42
2023-02-22T00:10:44.943Z,23.75
2023-02-22T00:12:16.920Z,24.08
2023-02-22T00:13:50.836Z,22.60
2023-02-22T00:15:27.595Z,20.75
2023-02-22T00:17:00.105Z,17.92
2023-02-22T00:18:32.223Z,26.20
2023-02-22T00:20:07.032Z,21.42
2023-02-22T00:21:38.960Z,17.40
2023-02-22T00:23:16.903Z,20.70
2023-02-22T00:24:49.030Z,27.48
2023-02-22T00:26:23.764Z,19.83
2023-02-22T00:27:56.557Z,30.70
2023-02-22T00:29:28.971Z,31.73
2023-02-22T00:31:00.980Z,34.05
2023-02-22T00:32:33.350Z,34.90
2023-02-22T00:34:05.484Z,33.72
2023-02-22T00:35:37.426Z,36.85
2023-02-22T00:37:11.391Z,24.55
2023-02-22T00:38:43.453Z,22.23
2023-02-22T00:40:19.507Z,24.30
2023-02-22T00:41:51.546Z,27.58
2023-02-22T00:43:26.735Z,20.02
2023-02-22T00:44:58.737Z,22.63
2023-02-22T00:46:30.759Z,23.60
2023-02-22T00:48:06.623Z,24.77
2023-02-22T00:49:39.348Z,19.65
2023-02-22T00:51:11.426Z,16.02
2023-02-22T00:52:43.409Z,13.95
2023-02-22T00:54:17.459Z,17.63
2023-02-22T00:55:49.726Z,19.80
2023-02-22T00:57:22.523Z,18.92
2023-02-22T00:58:54.552Z,19.63
2023-02-22T01:00:28.324Z,16.70
2023-02-22T01:02:00.380Z,17.80
2023-02-22T01:03:32.559Z,20.05
2023-02-22T01:05:05.907Z,18.85
2023-02-22T01:06:38.042Z,18.70
2023-02-22T01:08:11.493Z,21.00
2023-02-22T01:11:18.141Z,21.38
2023-02-22T01:12:53.126Z,21.00
2023-02-22T01:14:27.077Z,17.63
2023-02-22T01:16:01.014Z,15.80
2023-02-22T01:17:33.163Z,17.13
2023-02-22T01:19:06.585Z,14.63
2023-02-22T01:22:11.439Z,17.05
2023-02-22T01:23:45.882Z,14.63
2023-02-22T01:25:21.218Z,13.10
2023-02-22T01:26:53.546Z,13.38
2023-02-22T01:28:25.602Z,13.73
2023-02-22T01:29:57.582Z,14.43
2023-02-22T01:31:29.652Z,15.75
2023-02-22T01:33:03.133Z,17.70
2023-02-22T01:36:11.701Z,16.00
2023-02-22T01:37:43.678Z,16.88
2023-02-22T01:39:18.208Z,15.70
2023-02-22T01:40:51.639Z,14.85
2023-02-22T01:43:56.366Z,13.98
2023-02-22T01:45:31.064Z,12.55
2023-02-22T01:47:05.335Z,13.65
2023-02-22T01:49:06.844Z,12.68
2023-02-22T01:50:49.537Z,14.93
2023-02-22T01:52:21.871Z,15.90
2023-02-22T01:53:57.793Z,14.60
2023-02-22T01:55:29.891Z,19.35
2023-02-22T01:57:06.661Z,14.43
2023-02-22T01:58:41.673Z,14.93
2023-02-22T02:00:17.580Z,13.00
2023-02-22T02:01:49.720Z,14.25
2023-02-22T02:03:27.752Z,14.27
2023-02-22T02:05:00.465Z,11.80
2023-02-22T02:06:34.121Z,12.45
2023-02-22T02:08:36.540Z,13.63
2023-02-22T02:10:14.714Z,13.30
2023-02-22T02:11:47.116Z,13.50
2023-02-22T02:13:19.098Z,11.95
2023-02-22T02:14:51.187Z,11.80
2023-02-22T02:16:25.269Z,12.63
2023-02-22T02:18:01.091Z,12.07
2023-02-22T02:19:57.440Z,12.45
2023-02-22T02:21:50.148Z,11.07
2023-02-22T02:23:59.005Z,13.88
2023-02-22T02:25:49.590Z,11.70
2023-02-22T02:27:29.455Z,13.55
2023-02-22T02:29:22.453Z,11.23
2023-02-22T02:31:25.027Z,11.95
2023-02-22T02:33:02.116Z,12.38
2023-02-22T02:35:00.297Z,11.13
2023-02-22T02:36:39.167Z,10.95
2023-02-22T02:38:17.748Z,10.95
2023-02-22T02:39:56.126Z,11.70
2023-02-22T02:41:35.434Z,10.43
2023-02-22T02:43:27.671Z,11.45
2023-02-22T02:45:10.343Z,11.23
2023-02-22T02:47:35.029Z,10.52
2023-02-22T02:49:11.154Z,11.05
2023-02-22T02:50:48.406Z,12.32
2023-02-22T02:52:21.592Z,11.55
2023-02-22T02:53:54.353Z,9.65
2023-02-22T02:55:26.586Z,10.10
2023-02-22T02:56:58.927Z,10.73
2023-02-22T02:58:31.061Z,10.32
2023-02-22T03:00:03.702Z,12.40
2023-02-22T03:02:04.763Z,12.73
2023-02-22T03:04:10.510Z,11.77
2023-02-22T03:06:20.273Z,10.18
2023-02-22T03:08:21.545Z,11.88
2023-02-22T03:10:13.503Z,11.75
2023-02-22T03:12:02.501Z,12.48
2023-02-22T03:13:59.046Z,10.85
2023-02-22T03:15:57.412Z,11.63
2023-02-22T03:17:54.763Z,12.52
2023-02-22T03:19:44.729Z,11.80
2023-02-22T03:21:33.846Z,10.00
2023-02-22T03:23:12.560Z,11.85
2023-02-22T03:24:53.370Z,11.15
2023-02-22T03:26:36.189Z,11.45
2023-02-22T03:28:12.088Z,11.88
2023-02-22T03:29:46.047Z,12.73
2023-02-22T03:31:24.179Z,13.65
2023-02-22T03:33:09.331Z,13.57
2023-02-22T03:34:44.498Z,11.88
2023-02-22T03:36:25.210Z,14.10
2023-02-22T03:37:58.891Z,11.20
2023-02-22T03:39:31.692Z,12.57
2023-02-22T03:41:05.287Z,11.82
2023-02-22T03:44:12.862Z,11.13
2023-02-22T03:45:46.231Z,13.05
2023-02-22T03:47:32.357Z,10.73
2023-02-22T03:49:10.774Z,11.15
2023-02-22T03:50:43.135Z,12.25
2023-02-22T03:52:15.169Z,13.57
2023-02-22T03:53:50.069Z,11.18
2023-02-22T03:55:24.094Z,10.02
2023-02-22T03:56:58.787Z,11.75
2023-02-22T03:58:32.048Z,10.77
2023-02-22T04:00:08.468Z,11.10
2023-02-22T04:01:40.498Z,11.25
2023-02-22T04:03:12.797Z,10.45
2023-02-22T04:04:46.179Z,9.88
2023-02-22T04:06:18.242Z,11.85
2023-02-22T04:07:50.270Z,10.50
2023-02-22T04:09:22.330Z,11.77
2023-02-22T04:10:54.296Z,12.80
2023-02-22T04:12:26.312Z,11.95
2023-02-22T04:13:58.727Z,10.70
2023-02-22T04:15:30.776Z,12.40
2023-02-22T04:17:02.810Z,9.98
2023-02-22T04:18:34.841Z,11.93
2023-02-22T04:20:07.580Z,11.82
2023-02-22T04:21:39.596Z,8.93
2023-02-22T04:23:11.693Z,8.82
2023-02-22T04:24:43.678Z,9.13
2023-02-22T04:26:15.806Z,10.23
2023-02-22T04:27:48.018Z,11.00
2023-02-22T04:29:22.884Z,11.95
2023-02-22T04:30:54.976Z,11.48
2023-02-22T04:32:27.909Z,16.98
2023-02-22T04:34:01.059Z,9.70
2023-02-22T04:35:35.386Z,11.05
2023-02-22T04:37:08.105Z,11.18
2023-02-22T04:38:40.363Z,10.73
2023-02-22T04:40:12.536Z,10.95
2023-02-22T04:41:44.517Z,22.77
2023-02-22T04:43:16.702Z,19.90
2023-02-22T04:44:48.651Z,19.23
2023-02-22T04:46:20.824Z,20.20
2023-02-22T04:47:52.897Z,20.83
2023-02-22T04:49:24.949Z,14.07
2023-02-22T04:50:56.980Z,13.73
2023-02-22T04:52:29.170Z,11.45
2023-02-22T04:54:01.262Z,12.48
2023-02-22T04:55:34.421Z,11.23
2023-02-22T04:57:06.374Z,8.70
2023-02-22T04:58:38.432Z,10.60
2023-02-22T05:00:11.063Z,11.07
2023-02-22T05:01:43.100Z,10.83
2023-02-22T05:03:15.118Z,10.77
2023-02-22T05:04:47.368Z,9.90
2023-02-22T05:06:19.601Z,11.07
2023-02-22T05:07:51.697Z,11.38
2023-02-22T05:09:23.960Z,17.63
2023-02-22T05:10:56.328Z,15.60
2023-02-22T05:12:28.475Z,16.50
2023-02-22T05:14:00.672Z,14.20
2023-02-22T05:15:33.033Z,12.55
2023-02-22T05:17:05.336Z,15.40
2023-02-22T05:18:37.418Z,11.77
2023-02-22T05:20:28.234Z,11.40
2023-02-22T05:22:00.568Z,8.07
2023-02-22T05:23:33.257Z,8.70
2023-02-22T05:25:05.620Z,9.03
2023-02-22T05:26:37.712Z,10.00
2023-02-22T05:28:13.545Z,8.95
2023-02-22T05:29:45.642Z,9.15
2023-02-22T05:31:17.949Z,7.82
2023-02-22T05:32:51.505Z,9.07
2023-02-22T05:34:24.305Z,8.35
2023-02-22T05:35:56.552Z,9.25
2023-02-22T05:37:28.624Z,8.73
2023-02-22T05:39:00.649Z,9.45
2023-02-22T05:40:33.242Z,9.43
2023-02-22T05:42:05.380Z,11.48
2023-02-22T05:43:38.285Z,11.85
2023-02-22T05:45:16.343Z,10.05
2023-02-22T05:46:48.479Z,9.27
2023-02-22T05:48:22.640Z,9.00
2023-02-22T05:49:54.809Z,12.45
2023-02-22T05:51:26.886Z,8.68
2023-02-22T05:52:59.196Z,9.48
2023-02-22T05:54:31.216Z,10.55
2023-02-22T05:56:03.309Z,13.45
2023-02-22T05:57:35.525Z,15.60
2023-02-22T05:59:07.588Z,9.35
2023-02-22T06:00:39.661Z,9.75
2023-02-22T06:02:11.683Z,10.55
2023-02-22T06:03:46.503Z,10.18
2023-02-22T06:05:18.746Z,15.13
2023-02-22T06:06:50.954Z,14.23
2023-02-22T06:08:23.005Z,21.73
2023-02-22T06:09:55.038Z,16.60
2023-02-22T06:11:27.115Z,17.55
2023-02-22T06:13:00.518Z,17.63
2023-02-22T06:14:32.565Z,16.33
2023-02-22T06:16:04.907Z,14.68
2023-02-22T06:17:37.141Z,14.63
2023-02-22T06:19:09.328Z,15.02
2023-02-22T06:20:41.735Z,19.33
2023-02-22T06:22:19.121Z,14.30
2023-02-22T06:23:51.111Z,14.10
2023-02-22T06:25:25.960Z,12.40
2023-02-22T06:27:00.989Z,12.68
2023-02-22T06:28:32.943Z,12.70
2023-02-22T06:30:05.739Z,14.48
2023-02-22T06:31:37.888Z,13.70
2023-02-22T06:33:11.094Z,12.35
2023-02-22T06:34:43.107Z,10.73
2023-02-22T06:36:15.100Z,9.88
2023-02-22T06:37:47.223Z,11.05
2023-02-22T06:39:19.480Z,9.95
2023-02-22T06:40:52.115Z,12.60
2023-02-22T06:42:24.833Z,10.00
2023-02-22T06:43:56.953Z,12.75
2023-02-22T06:45:29.031Z,10.50
2023-02-22T06:47:01.209Z,9.55
2023-02-22T06:48:33.340Z,9.07
2023-02-22T06:50:05.706Z,8.85
2023-02-22T06:51:38.907Z,8.75
2023-02-22T06:53:11.010Z,8.50
2023-02-22T06:54:43.878Z,9.80
2023-02-22T06:56:16.016Z,14.52
2023-02-22T06:57:48.273Z,13.07
2023-02-22T06:59:20.339Z,11.55
2023-02-22T07:00:52.419Z,12.35
2023-02-22T07:02:24.889Z,14.82
2023-02-22T07:03:57.327Z,13.10
2023-02-22T07:05:29.534Z,15.95
2023-02-22T07:07:01.628Z,19.27
2023-02-22T07:08:33.868Z,20.15
2023-02-22T07:10:08.538Z,20.95
2023-02-22T07:11:40.805Z,16.65
2023-02-22T07:13:12.952Z,15.05
2023-02-22T07:14:45.003Z,14.85
2023-02-22T07:16:17.210Z,11.45
2023-02-22T07:17:49.515Z,12.57
2023-02-22T07:19:21.591Z,11.20
2023-02-22T07:20:54.766Z,10.55
2023-02-22T07:22:27.038Z,12.05
2023-02-22T07:24:02.228Z,11.88
2023-02-22T07:25:35.928Z,14.40
2023-02-22T07:27:07.939Z,11.75
2023-02-22T07:28:39.893Z,14.23
2023-02-22T07:30:31.532Z,10.57
2023-02-22T07:32:03.771Z,12.25
2023-02-22T07:33:35.958Z,7.40
2023-02-22T07:35:25.250Z,7.00
2023-02-22T07:36:57.220Z,7.32
2023-02-22T07:38:29.288Z,8.63
2023-02-22T07:40:01.349Z,8.00
2023-02-22T07:41:33.322Z,10.73
2023-02-22T07:43:07.194Z,7.85
2023-02-22T07:44:39.399Z,7.18
2023-02-22T07:46:11.512Z,7.53
2023-02-22T07:47:43.531Z,6.72
2023-02-22T07:49:15.756Z,8.35
2023-02-22T07:50:48.065Z,7.25
2023-02-22T07:52:20.235Z,7.63
2023-02-22T07:53:52.493Z,8.45
2023-02-22T07:55:26.779Z,10.55
2023-02-22T07:56:58.847Z,9.00
2023-02-22T07:58:31.996Z,8.15
2023-02-22T08:00:04.670Z,7.63
2023-02-22T08:01:37.535Z,18.40
2023-02-22T08:03:13.438Z,7.63
2023-02-22T08:04:45.497Z,10.38
2023-02-22T08:06:18.183Z,9.30
2023-02-22T08:07:50.432Z,7.35
2023-02-22T08:09:23.978Z,8.10
2023-02-22T08:10:56.401Z,7.93
2023-02-22T08:12:28.503Z,8.27
2023-02-22T08:14:00.708Z,8.27
2023-02-22T08:15:35.445Z,7.40
2023-02-22T08:17:08.837Z,7.60
2023-02-22T08:18:41.408Z,7.97
2023-02-22T08:20:13.992Z,7.57
2023-02-22T08:21:45.974Z,6.45
2023-02-22T08:23:19.541Z,8.20
2023-02-22T08:24:54.598Z,5.85
2023-02-22T08:26:26.799Z,10.60
2023-02-22T08:28:09.170Z,5.03
2023-02-22T08:29:41.305Z,7.20
2023-02-22T08:31:13.440Z,6.75
2023-02-22T08:32:47.222Z,6.70
2023-02-22T08:34:19.334Z,8.20
2023-02-22T08:35:52.131Z,6.70
2023-02-22T08:37:24.267Z,7.00
2023-02-22T08:38:56.306Z,5.65
2023-02-22T08:40:34.222Z,6.60
2023-02-22T08:42:06.717Z,6.00
2023-02-22T08:43:38.780Z,10.65
2023-02-22T08:45:11.877Z,7.07
2023-02-22T08:46:44.060Z,7.30
2023-02-22T08:48:17.365Z,7.05
2023-02-22T08:49:49.444Z,7.47
2023-02-22T08:51:21.768Z,6.70
2023-02-22T08:52:55.453Z,8.10
2023-02-22T08:54:27.511Z,6.50
2023-02-22T08:55:59.578Z,7.82
2023-02-22T08:57:32.216Z,7.97
2023-02-22T08:59:04.318Z,7.63
2023-02-22T09:00:39.162Z,7.85
2023-02-22T09:02:18.170Z,7.78
2023-02-22T09:03:50.833Z,8.77
2023-02-22T09:05:23.042Z,6.32
2023-02-22T09:06:55.205Z,6.22
2023-02-22T09:08:27.330Z,5.97
2023-02-22T09:09:59.558Z,8.65
2023-02-22T09:11:34.724Z,7.10
2023-02-22T09:13:06.904Z,6.97
2023-02-22T09:14:38.941Z,8.32
2023-02-22T09:16:11.061Z,8.43
2023-02-22T09:17:43.078Z,8.55
2023-02-22T09:19:15.053Z,6.38
2023-02-22T09:20:47.045Z,7.07
2023-02-22T09:22:19.115Z,6.45
2023-02-22T09:23:51.148Z,6.35
2023-02-22T09:25:24.213Z,7.15
2023-02-22T09:26:56.712Z,7.55
2023-02-22T09:28:29.291Z,7.30
2023-02-22T09:30:01.379Z,10.23
2023-02-22T09:31:39.242Z,9.98
2023-02-22T09:33:14.052Z,7.88
2023-02-22T09:34:47.407Z,6.97
2023-02-22T09:37:56.164Z,9.65
2023-02-22T09:39:28.280Z,8.45
2023-02-22T09:41:14.411Z,9.90
2023-02-22T09:42:57.546Z,6.20
2023-02-22T09:44:38.481Z,7.80
2023-02-22T09:46:19.895Z,5.07
2023-02-22T09:48:08.040Z,5.63
2023-02-22T09:50:16.092Z,11.00
2023-02-22T09:52:05.344Z,7.47
2023-02-22T09:53:42.136Z,7.55
2023-02-22T09:55:41.533Z,6.28
2023-02-22T09:57:22.244Z,6.72
2023-02-22T09:59:04.007Z,8.13
2023-02-22T10:00:38.352Z,7.40
2023-02-22T10:02:32.482Z,10.05
2023-02-22T10:04:20.778Z,6.88
2023-02-22T10:06:05.656Z,7.88
2023-02-22T10:07:55.763Z,7.82
2023-02-22T10:09:30.721Z,6.82
2023-02-22T10:11:17.754Z,8.40
2023-02-22T10:13:29.342Z,9.07
2023-02-22T10:15:30.561Z,7.97
2023-02-22T10:17:14.917Z,9.32
2023-02-22T10:19:08.771Z,6.10
2023-02-22T10:20:57.750Z,7.03
2023-02-22T10:22:38.648Z,7.18
2023-02-22T10:24:40.358Z,8.07
2023-02-22T10:26:12.739Z,6.90
2023-02-22T10:27:57.627Z,7.25
2023-02-22T10:29:40.297Z,6.50
2023-02-22T10:31:21.265Z,7.80
2023-02-22T10:33:05.736Z,5.88
2023-02-22T10:34:41.898Z,6.93
2023-02-22T10:36:20.397Z,7.43
2023-02-22T10:37:56.831Z,8.50
2023-02-22T10:39:33.547Z,6.22
2023-02-22T10:41:31.279Z,5.28
2023-02-22T10:43:05.112Z,7.18
2023-02-22T10:44:38.766Z,6.75
2023-02-22T10:46:21.609Z,7.63
2023-02-22T10:47:59.274Z,7.63
2023-02-22T10:49:36.626Z,9.85
2023-02-22T10:51:09.980Z,10.63
2023-02-22T10:54:13.942Z,13.52
2023-02-22T10:56:22.233Z,17.17
2023-02-22T10:58:04.972Z,11.98
2023-02-22T10:59:39.581Z,10.18
2023-02-22T11:01:37.435Z,10.48
2023-02-22T11:03:21.244Z,10.60
2023-02-22T11:06:26.221Z,10.18
2023-02-22T11:08:22.893Z,8.77
2023-02-22T11:10:00.261Z,9.45
2023-02-22T11:11:32.695Z,13.75
2023-02-22T11:13:18.811Z,8.73
2023-02-22T11:14:50.919Z,11.98
2023-02-22T11:16:41.358Z,8.10
2023-02-22T11:18:26.316Z,9.20
2023-02-22T11:19:59.518Z,10.95
2023-02-22T11:21:32.960Z,11.60
2023-02-22T11:23:06.028Z,10.98
2023-02-22T11:24:58.528Z,9.63
2023-02-22T11:26:38.902Z,10.95
2023-02-22T11:28:15.351Z,8.85
2023-02-22T11:29:51.170Z,8.38
2023-02-22T11:31:28.835Z,12.68
2023-02-22T11:33:17.749Z,12.40
2023-02-22T11:35:03.525Z,9.95
2023-02-22T11:36:42.913Z,8.02
2023-02-22T11:38:21.418Z,6.25
2023-02-22T11:40:07.380Z,6.18
2023-02-22T11:41:39.420Z,28.25
2023-02-22T11:43:19.351Z,23.75
2023-02-22T11:45:23.951Z,16.83
2023-02-22T11:46:57.636Z,16.60
2023-02-22T11:48:39.436Z,8.18
2023-02-22T11:50:30.724Z,9.10
2023-02-22T11:52:17.761Z,6.78
2023-02-22T11:53:59.808Z,8.38
2023-02-22T11:55:42.693Z,8.73
2023-02-22T11:57:24.755Z,10.75
2023-02-22T11:59:08.576Z,6.30
2023-02-22T12:02:29.172Z,6.13
2023-02-22T12:04:22.769Z,6.93
2023-02-22T12:06:19.813Z,7.07
2023-02-22T12:08:13.873Z,14.38
2023-02-22T12:09:58.246Z,12.90
2023-02-22T12:11:45.458Z,8.07
2023-02-22T12:13:18.205Z,7.35
2023-02-22T12:14:58.850Z,6.50
2023-02-22T12:17:08.156Z,7.85
2023-02-22T12:19:07.682Z,8.73
2023-02-22T12:20:48.049Z,10.18
2023-02-22T12:22:26.476Z,9.05
2023-02-22T12:24:20.446Z,10.15
2023-02-22T12:26:11.844Z,8.48
2023-02-22T12:27:49.616Z,8.55
2023-02-22T12:29:42.136Z,4.75
2023-02-22T12:31:21.343Z,5.07
2023-02-22T12:32:54.486Z,6.97
2023-02-22T12:34:49.184Z,6.63
2023-02-22T12:36:26.153Z,7.78
2023-02-22T12:38:07.236Z,6.30
2023-02-22T12:40:01.199Z,7.57
2023-02-22T12:41:59.444Z,6.53
2023-02-22T12:43:41.593Z,6.78
2023-02-22T12:45:21.743Z,9.27
2023-02-22T12:46:57.009Z,6.75
2023-02-22T12:48:40.916Z,7.68
2023-02-22T12:50:24.205Z,5.25
2023-02-22T12:52:20.838Z,5.57
2023-02-22T12:54:05.799Z,6.97
2023-02-22T12:55:45.996Z,6.50
2023-02-22T12:57:24.141Z,5.75
2023-02-22T12:59:03.234Z,6.63
2023-02-22T13:00:40.848Z,6.07
2023-02-22T13:02:27.830Z,4.97
2023-02-22T13:04:05.849Z,4.85
2023-02-22T13:05:45.511Z,6.70
2023-02-22T13:07:36.368Z,5.93
2023-02-22T13:09:24.868Z,7.65
2023-02-22T13:11:20.768Z,6.63
2023-02-22T13:13:11.385Z,7.72
2023-02-22T13:14:55.370Z,6.03
2023-02-22T13:16:37.708Z,5.20
2023-02-22T13:18:32.819Z,4.32
2023-02-22T13:20:30.021Z,4.80
2023-02-22T13:22:30.239Z,5.43
2023-02-22T13:24:16.080Z,8.98
2023-02-22T13:25:58.423Z,5.30
2023-02-22T13:27:54.828Z,5.68
2023-02-22T13:29:39.548Z,5.15
2023-02-22T13:31:23.673Z,8.02
2023-02-22T13:33:21.147Z,6.82
2023-02-22T13:35:07.953Z,5.93
2023-02-22T13:37:02.036Z,9.15
2023-02-22T13:38:55.782Z,5.82
2023-02-22T13:40:42.917Z,7.20
2023-02-22T13:42:18.035Z,7.03
2023-02-22T13:44:03.625Z,8.60
2023-02-22T13:45:44.705Z,5.55
2023-02-22T13:47:29.040Z,7.32
2023-02-22T13:49:19.473Z,6.00
2023-02-22T13:51:42.296Z,5.68
2023-02-22T13:53:30.125Z,5.90
2023-02-22T13:55:11.411Z,5.72
2023-02-22T13:56:44.858Z,7.57
2023-02-22T13:58:17.111Z,6.15
2023-02-22T13:59:49.425Z,7.72
2023-02-22T14:01:41.461Z,8.38
2023-02-22T14:03:13.534Z,7.07
2023-02-22T14:04:45.643Z,7.13
2023-02-22T14:06:36.943Z,5.88
2023-02-22T14:08:19.170Z,6.53
2023-02-22T14:09:59.518Z,8.07
2023-02-22T14:11:31.543Z,7.85
2023-02-22T14:13:10.047Z,6.57
2023-02-22T14:15:27.740Z,7.35
2023-02-22T14:17:26.651Z,7.70
2023-02-22T14:19:25.457Z,7.28
2023-02-22T14:21:16.521Z,6.38
2023-02-22T14:22:53.299Z,8.05
2023-02-22T14:24:25.739Z,6.93
2023-02-22T14:26:12.115Z,6.95
2023-02-22T14:27:44.332Z,6.20
2023-02-22T14:29:18.614Z,7.95
2023-02-22T14:30:50.726Z,6.32
